Time;durP1;ratioP1;P1;durP2;ratioP2;P2;SDS_P1;SDS_P2;PMS_P1;PMS_P2;Temp;Humidity;BMP_temperature;BMP_pressure;BME280_temperature;BME280_humidity;BME280_pressure;Samples;Min_cycle;Max_cycle;Signal;HPM_P1;HPM_P2
2022/08/05 00:01:16;;;;;;;18.13;6.65;;;;;;;19.85;100.00;101300.66;5054452;28;20502;-67
2022/08/05 00:03:42;;;;;;;18.58;6.60;;;;;;;19.80;100.00;101303.44;5054586;28;20036;-63
2022/08/05 00:06:07;;;;;;;18.95;6.95;;;;;;;19.81;100.00;101305.19;5054167;28;20096;-63
2022/08/05 00:08:34;;;;;;;18.92;6.97;;;;;;;19.65;100.00;101315.41;5054330;28;20115;-64
2022/08/05 00:11:02;;;;;;;19.42;6.93;;;;;;;19.78;100.00;101310.66;5054264;28;20021;-64
2022/08/05 00:13:30;;;;;;;20.63;6.95;;;;;;;19.77;100.00;101307.97;5054169;28;20029;-64
2022/08/05 00:15:56;;;;;;;19.23;6.95;;;;;;;19.78;100.00;101305.28;5050448;28;20480;-64
2022/08/05 00:18:21;;;;;;;18.33;7.20;;;;;;;19.65;100.00;101309.19;5054065;28;20028;-64
2022/08/05 00:20:46;;;;;;;19.17;7.40;;;;;;;19.73;100.00;101314.34;5053822;28;20057;-64
2022/08/05 00:23:11;;;;;;;20.10;7.13;;;;;;;19.82;100.00;101317.69;5054121;28;20021;-64
2022/08/05 00:25:37;;;;;;;18.77;7.13;;;;;;;19.74;100.00;101314.28;5054096;28;20021;-64
2022/08/05 00:28:02;;;;;;;19.60;7.28;;;;;;;19.67;100.00;101307.31;5054150;28;20049;-64
2022/08/05 00:30:28;;;;;;;19.92;7.40;;;;;;;19.65;100.00;101306.50;5054155;28;20049;-64
2022/08/05 00:32:53;;;;;;;19.80;7.68;;;;;;;19.64;100.00;101310.09;5053760;28;20025;-64
2022/08/05 00:35:18;;;;;;;20.02;7.72;;;;;;;19.62;100.00;101320.00;5052548;28;20072;-64
2022/08/05 00:37:44;;;;;;;19.35;7.43;;;;;;;19.72;100.00;101316.16;5053760;28;20524;-64
2022/08/05 00:40:09;;;;;;;19.10;7.47;;;;;;;19.65;100.00;101320.78;5053632;28;20039;-64
2022/08/05 00:42:38;;;;;;;19.98;7.50;;;;;;;19.58;100.00;101327.22;5053843;28;20029;-64
2022/08/05 00:45:06;;;;;;;19.58;7.57;;;;;;;19.55;100.00;101329.97;5053707;28;20025;-64
2022/08/05 00:47:31;;;;;;;21.75;7.60;;;;;;;19.64;100.00;101326.19;5053498;28;20502;-64
2022/08/05 00:49:56;;;;;;;20.20;7.57;;;;;;;19.64;100.00;101318.13;5052619;28;20029;-64
2022/08/05 00:52:22;;;;;;;23.10;7.85;;;;;;;19.61;100.00;101318.22;5053553;28;20017;-64
2022/08/05 00:54:48;;;;;;;19.13;7.38;;;;;;;19.71;100.00;101310.81;5053175;28;20053;-63
2022/08/05 00:57:13;;;;;;;21.08;7.32;;;;;;;19.68;100.00;101309.09;5053269;28;20053;-63
2022/08/05 00:59:39;;;;;;;20.67;7.97;;;;;;;19.80;100.00;101318.66;5053534;28;20031;-63
2022/08/05 01:02:04;;;;;;;20.40;7.97;;;;;;;19.72;100.00;101317.94;5053283;28;20061;-63
2022/08/05 01:04:29;;;;;;;22.38;8.30;;;;;;;19.64;100.00;101312.78;5053408;28;20035;-63
2022/08/05 01:06:55;;;;;;;20.00;7.57;;;;;;;19.66;100.00;101311.81;5053330;28;20057;-63
2022/08/05 01:09:21;;;;;;;21.02;7.90;;;;;;;19.66;100.00;101319.00;5052915;28;20025;-63
2022/08/05 01:11:54;;;;;;;21.70;8.27;;;;;;;19.53;100.00;101331.84;5053454;28;20021;-63
2022/08/05 01:14:25;;;;;;;20.63;7.55;;;;;;;19.51;100.00;101339.00;5052917;28;20543;-63
2022/08/05 01:17:01;;;;;;;19.83;7.63;;;;;;;19.49;100.00;101347.09;5052961;28;20419;-63
2022/08/05 01:19:29;;;;;;;21.20;7.68;;;;;;;19.49;100.00;101359.63;5049181;28;20029;-63
2022/08/05 01:22:27;;;;;;;21.67;7.50;;;;;;;19.46;100.00;101368.63;5049301;28;20025;-63
2022/08/05 01:25:11;;;;;;;20.52;7.70;;;;;;;19.22;100.00;101382.59;5052216;28;20480;-63
2022/08/05 01:27:39;;;;;;;20.67;7.53;;;;;;;19.13;100.00;101397.09;5050414;28;20111;-63
2022/08/05 01:30:05;;;;;;;21.90;7.35;;;;;;;18.98;100.00;101409.03;5053157;28;20113;-63
2022/08/05 01:32:35;;;;;;;21.35;7.45;;;;;;;19.02;100.00;101400.03;5052759;28;20483;-63
2022/08/05 01:35:08;;;;;;;21.02;7.43;;;;;;;19.14;100.00;101391.69;5051518;28;20094;-63
2022/08/05 01:37:50;;;;;;;19.15;7.20;;;;;;;19.22;100.00;101374.56;5052794;28;20531;-63
2022/08/05 01:40:18;;;;;;;21.20;7.55;;;;;;;19.25;100.00;101362.00;5053095;28;20053;-64
2022/08/05 01:42:45;;;;;;;21.35;7.57;;;;;;;19.25;100.00;101371.81;5052753;28;20059;-64
2022/08/05 01:45:14;;;;;;;19.58;7.00;;;;;;;19.27;100.00;101372.69;5052532;28;20095;-64
2022/08/05 01:47:40;;;;;;;19.35;6.68;;;;;;;19.20;100.00;101384.47;5052857;28;20025;-66
2022/08/05 01:50:10;;;;;;;20.15;6.88;;;;;;;19.23;100.00;101381.69;5052787;28;20028;-63
2022/08/05 01:52:39;;;;;;;20.02;6.90;;;;;;;19.20;100.00;101381.78;5052550;28;20033;-64
2022/08/05 01:55:08;;;;;;;20.67;7.03;;;;;;;19.26;100.00;101373.59;5052209;28;20036;-63
2022/08/05 01:57:43;;;;;;;20.48;6.65;;;;;;;19.26;100.00;101376.25;5052416;28;20037;-64
2022/08/05 02:00:10;;;;;;;20.13;7.22;;;;;;;19.22;100.00;101370.13;5053074;28;20028;-63
2022/08/05 02:02:42;;;;;;;21.02;6.90;;;;;;;19.22;100.00;101359.41;5056858;28;20163;-64
2022/08/05 02:05:10;;;;;;;23.98;7.20;;;;;;;19.26;100.00;101338.75;5056512;28;20116;-63
2022/08/05 02:07:39;;;;;;;20.70;6.78;;;;;;;19.18;100.00;101312.16;5057025;28;20014;-63
2022/08/05 02:10:05;;;;;;;19.83;7.15;;;;;;;19.20;100.00;101306.75;5056281;28;20067;-64
2022/08/05 02:12:43;;;;;;;21.17;7.22;;;;;;;19.23;100.00;101317.38;5056276;28;20021;-63
2022/08/05 02:15:14;;;;;;;19.83;7.10;;;;;;;19.20;100.00;101317.47;5056466;28;20025;-67
2022/08/05 02:17:52;;;;;;;20.52;6.90;;;;;;;19.23;100.00;101344.19;5056545;28;20021;-63
2022/08/05 02:20:26;;;;;;;22.58;7.20;;;;;;;19.17;100.00;101345.22;5056492;28;20384;-64
2022/08/05 02:22:59;;;;;;;20.20;7.05;;;;;;;19.09;100.00;101326.66;5056480;28;20068;-63
2022/08/05 02:25:30;;;;;;;22.13;7.22;;;;;;;19.03;100.00;101324.06;5051995;28;20021;-65
2022/08/05 02:27:57;;;;;;;21.85;7.18;;;;;;;19.11;100.00;101346.22;5052221;28;20025;-64
2022/08/05 02:30:25;;;;;;;21.40;7.07;;;;;;;19.09;100.00;101348.06;5056358;28;20021;-65
2022/08/05 02:32:54;;;;;;;21.02;7.05;;;;;;;19.05;100.00;101351.72;5055980;28;20029;-63
2022/08/05 02:35:22;;;;;;;21.90;7.55;;;;;;;19.08;100.00;101356.16;5055028;28;20044;-63
2022/08/05 02:37:50;;;;;;;21.80;7.20;;;;;;;19.10;100.00;101365.03;5056193;28;20021;-64
2022/08/05 02:40:17;;;;;;;20.23;7.03;;;;;;;19.20;100.00;101371.06;5055889;28;20029;-65
2022/08/05 02:42:44;;;;;;;21.67;6.78;;;;;;;19.09;100.00;101374.88;5055823;28;20025;-64
2022/08/05 02:45:11;;;;;;;21.58;7.57;;;;;;;19.12;100.00;101373.88;5056018;28;20075;-65
2022/08/05 02:47:38;;;;;;;20.70;7.50;;;;;;;19.12;100.00;101363.16;5055723;28;20056;-64
2022/08/05 02:50:06;;;;;;;20.52;7.30;;;;;;;19.17;100.00;101356.78;5055587;28;20490;-63
2022/08/05 02:52:32;;;;;;;20.65;7.07;;;;;;;19.16;100.00;101354.16;5056130;28;20411;-63
2022/08/05 02:54:59;;;;;;;20.33;7.35;;;;;;;19.07;100.00;101349.88;5055505;28;20031;-63
2022/08/05 02:57:26;;;;;;;21.77;7.40;;;;;;;19.03;100.00;101340.16;5055496;28;20037;-63
2022/08/05 02:59:53;;;;;;;21.00;7.28;;;;;;;19.05;100.00;101332.13;5056115;28;20090;-63
2022/08/05 03:02:22;;;;;;;21.48;7.45;;;;;;;19.02;100.00;101338.41;5055786;28;20033;-62
2022/08/05 03:04:49;;;;;;;19.83;7.22;;;;;;;19.02;100.00;101333.06;5055708;28;20028;-63
2022/08/05 03:07:16;;;;;;;20.25;7.30;;;;;;;19.00;100.00;101334.88;5055717;28;20032;-63
2022/08/05 03:09:43;;;;;;;19.67;7.32;;;;;;;18.99;100.00;101327.78;5055454;28;20025;-63
2022/08/05 03:12:08;;;;;;;20.65;7.38;;;;;;;19.03;100.00;101326.75;5054337;28;20032;-63
2022/08/05 03:14:34;;;;;;;21.60;7.97;;;;;;;18.94;100.00;101335.88;5055323;28;20037;-63
2022/08/05 03:16:59;;;;;;;21.80;7.55;;;;;;;18.97;100.00;101343.88;5055343;28;20111;-63
2022/08/05 03:19:25;;;;;;;20.35;7.50;;;;;;;18.97;100.00;101353.69;5054180;28;20025;-63
2022/08/05 03:21:50;;;;;;;20.63;7.40;;;;;;;18.97;100.00;101359.97;5055493;28;20079;-63
2022/08/05 03:24:18;;;;;;;22.20;7.35;;;;;;;18.98;100.00;101371.53;5055102;28;20033;-63
2022/08/05 03:26:43;;;;;;;20.80;7.82;;;;;;;18.98;100.00;101360.81;5055095;28;20434;-66
2022/08/05 03:29:09;;;;;;;21.15;7.40;;;;;;;18.99;100.00;101362.59;5055501;28;20099;-63
2022/08/05 03:31:35;;;;;;;22.10;7.50;;;;;;;18.90;100.00;101363.69;5054944;28;20376;-63
2022/08/05 03:34:00;;;;;;;20.42;6.82;;;;;;;19.00;100.00;101364.34;5054886;28;20037;-64
2022/08/05 03:36:26;;;;;;;22.92;7.28;;;;;;;19.03;100.00;101372.31;5054809;28;20028;-63
2022/08/05 03:38:51;;;;;;;18.90;7.03;;;;;;;18.98;100.00;101366.19;5054946;28;20025;-63
2022/08/05 03:41:17;;;;;;;21.30;7.28;;;;;;;18.98;100.00;101374.22;5055229;28;20032;-63
2022/08/05 03:43:42;;;;;;;21.42;7.38;;;;;;;18.93;100.00;101376.09;5054608;28;20032;-63
2022/08/05 03:46:08;;;;;;;20.95;7.28;;;;;;;18.97;100.00;101369.78;5054880;28;20021;-63
2022/08/05 03:48:33;;;;;;;21.08;7.35;;;;;;;18.93;100.00;101360.03;5054732;28;20071;-63
2022/08/05 03:51:12;;;;;;;21.38;7.57;;;;;;;18.90;100.00;101355.66;5054530;28;20029;-63
2022/08/05 03:53:45;;;;;;;20.70;7.50;;;;;;;18.90;100.00;101352.06;5052154;28;20025;-63
2022/08/05 03:56:30;;;;;;;20.55;7.60;;;;;;;18.80;100.00;101354.94;5054156;28;20057;-63
2022/08/05 03:58:59;;;;;;;20.67;7.85;;;;;;;18.65;100.00;101341.84;5054413;28;20029;-66
2022/08/05 04:01:29;;;;;;;22.08;7.55;;;;;;;18.61;100.00;101340.16;5054665;28;20025;-63
2022/08/05 04:03:55;;;;;;;21.75;7.97;;;;;;;18.60;100.00;101341.97;5054560;28;20468;-64
2022/08/05 04:06:21;;;;;;;20.83;7.57;;;;;;;18.61;100.00;101349.09;5052911;28;20037;-64
2022/08/05 04:08:46;;;;;;;21.92;7.80;;;;;;;18.59;100.00;101350.03;5054333;28;20025;-64
2022/08/05 04:11:12;;;;;;;21.33;7.65;;;;;;;18.62;100.00;101353.53;5054213;28;20013;-64
2022/08/05 04:13:41;;;;;;;23.38;8.10;;;;;;;18.59;100.00;101342.88;5054151;28;20025;-64
2022/08/05 04:16:08;;;;;;;21.20;8.02;;;;;;;18.53;100.00;101339.47;5054065;28;20033;-64
2022/08/05 04:18:34;;;;;;;21.92;8.20;;;;;;;18.45;100.00;101340.50;5054159;28;20025;-64
2022/08/05 04:20:59;;;;;;;21.00;8.05;;;;;;;18.39;100.00;101337.06;5053933;28;20108;-64
2022/08/05 04:23:28;;;;;;;21.58;8.32;;;;;;;18.26;100.00;101356.03;5053906;28;20032;-64
2022/08/05 04:25:53;;;;;;;20.55;7.53;;;;;;;18.37;100.00;101354.94;5053884;28;20067;-64
2022/08/05 04:28:20;;;;;;;20.58;7.88;;;;;;;18.41;100.00;101344.16;5053922;28;20423;-64
2022/08/05 04:30:46;;;;;;;21.95;7.97;;;;;;;18.47;100.00;101335.09;5053786;28;20107;-64
2022/08/05 04:33:12;;;;;;;22.02;8.18;;;;;;;18.52;100.00;101340.38;5053874;28;20086;-64
2022/08/05 04:35:38;;;;;;;21.23;8.40;;;;;;;18.51;100.00;101349.28;5053546;28;20052;-64
2022/08/05 04:38:03;;;;;;;20.85;8.18;;;;;;;18.50;100.00;101350.22;5054047;28;20067;-64
2022/08/05 04:40:35;;;;;;;22.00;8.00;;;;;;;18.45;100.00;101361.03;5053715;28;20112;-64
2022/08/05 04:43:01;;;;;;;21.58;8.43;;;;;;;18.44;100.00;101362.81;5049976;28;20029;-64
2022/08/05 04:45:26;;;;;;;21.13;8.00;;;;;;;18.47;100.00;101370.78;5053859;28;20031;-64
2022/08/05 04:47:52;;;;;;;20.88;7.75;;;;;;;18.52;100.00;101368.00;5053637;28;20017;-63
2022/08/05 04:50:18;;;;;;;21.67;7.85;;;;;;;18.51;100.00;101366.25;5053462;28;20020;-63
2022/08/05 04:52:43;;;;;;;21.77;8.00;;;;;;;18.42;100.00;101367.31;5053622;28;20025;-63
2022/08/05 04:55:09;;;;;;;21.77;8.20;;;;;;;18.39;100.00;101364.72;5053114;28;20150;-63
2022/08/05 04:57:34;;;;;;;22.38;8.23;;;;;;;18.41;100.00;101362.88;5053184;28;20076;-63
2022/08/05 04:59:59;;;;;;;20.92;8.05;;;;;;;18.43;100.00;101358.38;5053723;28;20086;-63
2022/08/05 05:02:25;;;;;;;21.52;8.13;;;;;;;18.50;100.00;101366.28;5053380;28;20097;-63
2022/08/05 05:04:51;;;;;;;22.35;8.25;;;;;;;18.57;100.00;101359.91;5053408;28;20025;-63
2022/08/05 05:07:17;;;;;;;20.80;8.07;;;;;;;18.58;100.00;101361.63;5052219;28;20107;-63
2022/08/05 05:09:42;;;;;;;21.65;8.30;;;;;;;18.59;100.00;101363.41;5053284;28;20035;-63
2022/08/05 05:12:07;;;;;;;21.73;7.93;;;;;;;18.57;100.00;101367.94;5053100;28;20369;-64
2022/08/05 05:14:33;;;;;;;22.73;9.43;;;;;;;18.67;100.00;101372.19;5053620;28;20028;-63
2022/08/05 05:16:59;;;;;;;22.77;8.15;;;;;;;18.73;100.00;101366.69;5052927;28;20029;-63
2022/08/05 05:19:24;;;;;;;19.83;7.82;;;;;;;18.71;100.00;101365.84;5053352;28;20028;-63
2022/08/05 05:21:50;;;;;;;20.85;7.80;;;;;;;18.67;100.00;101374.84;5053202;28;20033;-63
2022/08/05 05:24:15;;;;;;;21.10;7.80;;;;;;;18.71;100.00;101373.88;5053091;28;20029;-63
2022/08/05 05:26:41;;;;;;;20.45;7.80;;;;;;;18.66;100.00;101370.41;5053277;28;20024;-63
2022/08/05 05:29:06;;;;;;;21.52;7.93;;;;;;;18.61;100.00;101372.28;5052844;28;20021;-66
2022/08/05 05:31:31;;;;;;;21.67;7.53;;;;;;;18.63;100.00;101379.38;5052882;28;20031;-63
2022/08/05 05:33:57;;;;;;;21.10;7.60;;;;;;;18.59;100.00;101377.66;5052748;28;20017;-65
2022/08/05 05:36:23;;;;;;;20.77;7.45;;;;;;;18.50;100.00;101383.22;5046972;28;20024;-64
2022/08/05 05:38:48;;;;;;;21.08;7.00;;;;;;;18.58;100.00;101389.31;5051245;28;20047;-64
2022/08/05 05:41:13;;;;;;;20.67;7.47;;;;;;;18.53;100.00;101395.66;5050981;28;20094;-64
2022/08/05 05:43:39;;;;;;;20.40;6.93;;;;;;;18.54;100.00;101392.97;5050795;28;20032;-63
2022/08/05 05:46:04;;;;;;;18.98;6.97;;;;;;;18.48;100.00;101409.16;5050299;28;20025;-64
2022/08/05 05:48:29;;;;;;;21.13;6.90;;;;;;;18.49;100.00;101404.66;5050968;28;20049;-65
2022/08/05 05:50:55;;;;;;;21.40;7.20;;;;;;;18.50;100.00;101410.00;5050623;28;20028;-66
2022/08/05 05:53:20;;;;;;;20.77;6.95;;;;;;;18.49;100.00;101410.91;5051042;28;20043;-64
2022/08/05 05:55:46;;;;;;;18.27;6.50;;;;;;;18.53;100.00;101417.09;5050152;28;20063;-65
2022/08/05 05:58:11;;;;;;;18.23;6.32;;;;;;;18.56;100.00;101415.22;5050209;28;20056;-66
2022/08/05 06:00:36;;;;;;;20.40;7.07;;;;;;;18.55;100.00;101420.59;5050568;28;20048;-65
2022/08/05 06:03:02;;;;;;;20.17;6.78;;;;;;;18.63;100.00;101421.34;5050832;28;20017;-64
2022/08/05 06:05:27;;;;;;;18.30;6.32;;;;;;;18.73;100.00;101420.25;5050004;28;20091;-65
2022/08/05 06:07:52;;;;;;;20.60;6.45;;;;;;;18.78;100.00;101421.00;5050768;28;20020;-65
2022/08/05 06:10:18;;;;;;;21.20;6.25;;;;;;;18.81;100.00;101418.31;5050418;28;20032;-65
2022/08/05 06:12:43;;;;;;;21.98;6.40;;;;;;;18.87;100.00;101419.97;5050607;28;20452;-68
2022/08/05 06:15:09;;;;;;;20.48;6.40;;;;;;;18.96;100.00;101417.13;5050833;28;20036;-66
2022/08/05 06:17:35;;;;;;;17.48;5.78;;;;;;;18.94;100.00;101418.94;5049856;28;20071;-65
2022/08/05 06:20:00;;;;;;;19.90;5.80;;;;;;;18.98;100.00;101426.00;5050420;28;20060;-66
2022/08/05 06:22:27;;;;;;;19.17;6.13;;;;;;;18.92;100.00;101420.78;5047736;28;20033;-64
2022/08/05 06:24:53;;;;;;;18.65;5.60;;;;;;;18.80;100.00;101416.53;5047887;28;20021;-67
2022/08/05 06:27:18;;;;;;;18.45;5.38;;;;;;;18.92;100.00;101420.78;5048980;28;20036;-65
2022/08/05 06:29:44;;;;;;;18.05;5.43;;;;;;;19.03;100.00;101425.88;5049081;28;20024;-64
2022/08/05 06:32:10;;;;;;;19.33;5.85;;;;;;;19.17;100.00;101425.59;5050445;28;20044;-65
2022/08/05 06:34:35;;;;;;;20.63;5.82;;;;;;;19.12;100.00;101425.69;5049734;28;20025;-65
2022/08/05 06:37:00;;;;;;;17.55;5.57;;;;;;;19.22;100.00;101425.47;5049999;28;20029;-66
2022/08/05 06:39:26;;;;;;;19.60;5.78;;;;;;;19.30;100.00;101426.22;5050285;28;20036;-66
2022/08/05 06:41:51;;;;;;;18.00;5.90;;;;;;;19.38;100.00;101440.28;5050434;28;20040;-66
2022/08/05 06:44:17;;;;;;;20.48;5.90;;;;;;;19.45;100.00;101441.91;5050407;28;20119;-64
2022/08/05 06:46:42;;;;;;;17.30;5.70;;;;;;;19.52;100.00;101443.53;5051118;28;20464;-64
2022/08/05 06:49:07;;;;;;;18.83;5.70;;;;;;;19.55;100.00;101447.94;5054652;28;20032;-65
2022/08/05 06:51:33;;;;;;;17.65;5.72;;;;;;;19.60;100.00;101451.41;5054033;28;20499;-64
2022/08/05 06:53:59;;;;;;;21.52;6.30;;;;;;;19.67;100.00;101458.41;5053539;28;20033;-64
2022/08/05 06:56:26;;;;;;;20.27;6.20;;;;;;;19.74;100.00;101466.28;5052088;28;20036;-66
2022/08/05 06:58:51;;;;;;;19.27;5.90;;;;;;;19.83;100.00;101467.00;5053804;28;20483;-66
2022/08/05 07:01:16;;;;;;;19.55;5.88;;;;;;;19.96;100.00;101469.34;5053377;28;20156;-66
2022/08/05 07:03:41;;;;;;;19.25;5.72;;;;;;;19.98;100.00;101475.56;5054004;28;20051;-65
2022/08/05 07:06:07;;;;;;;18.02;5.65;;;;;;;20.03;100.00;101479.03;5052914;28;20096;-65
2022/08/05 07:08:32;;;;;;;18.77;5.82;;;;;;;20.05;100.00;101479.84;5053246;28;20029;-65
2022/08/05 07:10:58;;;;;;;20.25;5.90;;;;;;;20.15;100.00;101473.34;5053823;28;20032;-68
2022/08/05 07:18:51;;;;;;;19.17;5.68;;;;;;;20.37;100.00;101480.81;5052242;28;20083;-65
2022/08/05 07:21:16;;;;;;;19.50;5.70;;;;;;;20.63;100.00;101493.53;5053282;28;20056;-65
2022/08/05 07:23:42;;;;;;;19.02;5.78;;;;;;;20.82;100.00;101498.44;5053387;28;20064;-66
2022/08/05 07:26:07;;;;;;;19.40;5.50;;;;;;;20.85;100.00;101498.34;5053496;28;20102;-68
2022/08/05 07:28:33;;;;;;;19.40;5.80;;;;;;;20.94;100.00;101498.13;5053373;28;20060;-67
2022/08/05 07:30:58;;;;;;;18.58;5.40;;;;;;;21.06;100.00;101502.25;5053293;28;20374;-65
2022/08/05 07:33:24;;;;;;;19.13;5.38;;;;;;;21.27;100.00;101499.84;5052105;28;20028;-67
2022/08/05 07:35:49;;;;;;;19.33;5.70;;;;;;;21.48;100.00;101503.69;5052609;28;20037;-66
2022/08/05 07:38:15;;;;;;;19.30;5.10;;;;;;;21.45;100.00;101504.69;5053036;28;20491;-66
2022/08/05 07:40:41;;;;;;;17.30;5.20;;;;;;;21.34;100.00;101513.06;5053070;28;20376;-65
2022/08/05 07:43:06;;;;;;;18.35;4.80;;;;;;;21.48;100.00;101512.66;5053242;28;20028;-67
2022/08/05 07:45:31;;;;;;;16.30;4.97;;;;;;;21.65;100.00;101517.50;5053325;28;20608;-66
2022/08/05 07:47:57;;;;;;;17.10;5.03;;;;;;;21.71;100.00;101516.44;5052682;28;20025;-67
2022/08/05 07:50:23;;;;;;;18.58;5.22;;;;;;;21.57;100.00;101515.06;5052808;28;20166;-66
2022/08/05 07:52:48;;;;;;;17.42;4.80;;;;;;;21.44;100.00;101518.16;5053078;28;20104;-66
2022/08/05 07:55:13;;;;;;;18.35;4.60;;;;;;;21.39;100.00;101520.97;5052811;28;20474;-66
2022/08/05 07:57:38;;;;;;;17.85;4.70;;;;;;;21.19;100.00;101524.28;5052200;28;20048;-66
2022/08/05 08:00:04;;;;;;;17.13;4.95;;;;;;;20.99;100.00;101531.09;5052325;28;20090;-63
2022/08/05 08:02:30;;;;;;;15.30;4.63;;;;;;;20.96;100.00;101522.25;5052742;28;20115;-67
2022/08/05 08:04:55;;;;;;;16.40;4.80;;;;;;;20.86;100.00;101535.94;5052838;28;20083;-63
2022/08/05 08:07:21;;;;;;;17.23;4.60;;;;;;;20.89;100.00;101533.16;5051899;28;20445;-63
2022/08/05 08:09:48;;;;;;;17.58;5.07;;;;;;;20.79;100.00;101533.47;5052231;28;20043;-64
2022/08/05 08:12:14;;;;;;;16.08;4.60;;;;;;;20.76;100.00;101542.47;5051201;28;20025;-65
2022/08/05 08:14:41;;;;;;;14.75;4.43;;;;;;;20.98;100.00;101539.19;5051701;28;20029;-67
2022/08/05 08:17:09;;;;;;;13.00;4.40;;;;;;;21.25;100.00;101534.84;5052203;28;20024;-65
2022/08/05 08:19:39;;;;;;;16.95;4.70;;;;;;;21.65;100.00;101538.16;5052380;28;20021;-67
2022/08/05 08:22:06;;;;;;;15.10;4.47;;;;;;;22.02;100.00;101545.97;5048372;28;20107;-67
2022/08/05 08:24:31;;;;;;;15.90;4.35;;;;;;;22.22;100.00;101545.31;5048109;28;20037;-65
2022/08/05 08:26:57;;;;;;;14.32;4.20;;;;;;;22.21;100.00;101548.06;5050441;28;20020;-68
2022/08/05 08:29:22;;;;;;;15.18;4.20;;;;;;;22.39;100.00;101557.34;5050208;28;20024;-66
2022/08/05 08:31:49;;;;;;;14.38;4.07;;;;;;;22.42;100.00;101562.63;5051205;28;20104;-67
2022/08/05 08:34:19;;;;;;;13.63;3.95;;;;;;;22.29;100.00;101563.03;5051934;28;20036;-67
2022/08/05 08:36:44;;;;;;;13.55;3.85;;;;;;;22.35;100.00;101569.16;5051471;28;20032;-67
2022/08/05 08:39:10;;;;;;;12.45;3.58;;;;;;;22.50;98.90;101565.94;5051552;28;20025;-65
2022/08/05 08:41:39;;;;;;;14.35;3.88;;;;;;;22.49;98.40;101568.69;5051382;28;20025;-66
2022/08/05 08:44:07;;;;;;;15.88;4.13;;;;;;;22.67;98.77;101569.84;5051162;28;20028;-66
2022/08/05 08:46:33;;;;;;;11.75;3.78;;;;;;;22.88;96.57;101577.19;5051849;28;20383;-66
2022/08/05 08:49:01;;;;;;;14.35;3.70;;;;;;;23.01;95.64;101572.25;5051205;28;20028;-66
2022/08/05 08:51:30;;;;;;;13.68;3.80;;;;;;;23.28;95.05;101581.16;5051916;28;20048;-67
2022/08/05 08:53:56;;;;;;;14.70;3.72;;;;;;;23.51;93.35;101587.50;5051654;28;20115;-67
2022/08/05 08:56:22;;;;;;;12.40;3.60;;;;;;;23.99;92.93;101589.25;5050741;28;20051;-66
2022/08/05 08:58:48;;;;;;;13.15;3.67;;;;;;;24.31;90.51;101589.75;5051733;28;20029;-67
2022/08/05 09:01:13;;;;;;;14.00;3.92;;;;;;;24.33;85.66;101592.38;5051727;28;20029;-66
2022/08/05 09:03:40;;;;;;;12.57;3.70;;;;;;;24.34;87.91;101605.81;5051578;28;20497;-67
2022/08/05 09:06:05;;;;;;;13.77;3.58;;;;;;;24.22;89.93;101600.03;5050518;28;20037;-67
2022/08/05 09:08:31;;;;;;;10.85;3.47;;;;;;;24.31;86.77;101611.34;5051860;28;20032;-70
2022/08/05 09:10:57;;;;;;;12.63;3.53;;;;;;;24.56;86.32;101604.06;5048726;28;20028;-67
2022/08/05 09:13:23;;;;;;;10.88;3.33;;;;;;;24.77;86.48;101613.09;5051333;28;20134;-66
2022/08/05 09:15:49;;;;;;;14.02;3.28;;;;;;;24.77;86.15;101607.69;5050531;28;20040;-66
2022/08/05 09:18:15;;;;;;;13.38;3.30;;;;;;;25.09;84.42;101613.50;5051096;28;20060;-66
2022/08/05 09:20:43;;;;;;;12.52;3.10;;;;;;;24.68;80.81;101609.84;5051035;28;20143;-65
2022/08/05 09:23:10;;;;;;;11.65;3.40;;;;;;;24.00;84.39;101615.31;5050640;28;20479;-65
2022/08/05 09:25:37;;;;;;;12.30;3.30;;;;;;;23.33;87.79;101616.94;5050400;28;20033;-64
2022/08/05 09:28:12;;;;;;;10.45;3.20;;;;;;;22.73;89.22;101620.84;5050890;28;20526;-65
2022/08/05 09:30:38;;;;;;;11.27;3.30;;;;;;;22.34;92.83;101623.94;5050581;28;20127;-65
2022/08/05 09:33:03;;;;;;;12.05;3.35;;;;;;;22.08;93.76;101634.59;5050828;28;20025;-64
2022/08/05 09:35:29;;;;;;;12.77;3.30;;;;;;;21.93;97.10;101625.19;5050628;28;20032;-65
2022/08/05 09:37:55;;;;;;;14.50;3.60;;;;;;;22.08;97.50;101625.63;5050582;28;20036;-65
2022/08/05 09:40:39;;;;;;;13.27;3.42;;;;;;;23.48;91.23;101633.47;5050848;28;20392;-66
2022/08/05 09:43:06;;;;;;;10.85;3.17;;;;;;;25.23;80.74;101635.41;5050292;28;20025;-66
2022/08/05 09:45:37;;;;;;;10.43;3.03;;;;;;;27.08;73.02;101637.34;5049106;28;20037;-64
2022/08/05 09:48:19;;;;;;;12.05;2.97;;;;;;;28.37;66.36;101636.63;5052184;28;20506;-66
2022/08/05 09:50:48;;;;;;;10.43;3.00;;;;;;;28.60;59.82;101642.53;5052472;28;20159;-63
2022/08/05 09:53:14;;;;;;;12.60;3.30;;;;;;;29.07;56.05;101640.66;5052360;28;20057;-63
2022/08/05 09:55:39;;;;;;;9.50;2.80;;;;;;;29.45;43.33;101638.34;5052292;28;20060;-63
2022/08/05 09:58:13;;;;;;;9.93;3.00;;;;;;;28.17;45.02;101641.38;5052355;28;20041;-63
2022/08/05 10:00:38;;;;;;;9.55;2.70;;;;;;;27.36;46.81;101643.16;5052334;28;20032;-63
2022/08/05 10:03:10;;;;;;;11.52;2.90;;;;;;;27.00;49.29;101652.25;5052357;28;20029;-63
2022/08/05 10:05:37;;;;;;;7.10;2.28;;;;;;;26.31;46.10;101643.94;5052303;28;20017;-63
2022/08/05 10:08:05;;;;;;;6.20;2.10;;;;;;;25.45;46.86;101654.28;5052357;28;20029;-63
2022/08/05 10:10:36;;;;;;;6.57;2.10;;;;;;;25.98;44.06;101654.53;5052438;28;20024;-64
2022/08/05 10:13:02;;;;;;;5.95;2.10;;;;;;;27.62;42.31;101655.31;5052047;28;20589;-63
2022/08/05 10:15:31;;;;;;;6.60;2.13;;;;;;;30.00;37.28;101663.03;5052169;28;20471;-64
2022/08/05 10:18:07;;;;;;;8.13;2.08;;;;;;;30.90;35.93;101656.13;5052188;28;20029;-64
2022/08/05 10:20:46;;;;;;;7.50;2.10;;;;;;;32.48;31.06;101664.84;5051985;28;20036;-64
2022/08/05 10:23:23;;;;;;;3.75;1.77;;;;;;;32.46;28.79;101661.34;5056337;28;20838;-65
2022/08/05 10:25:49;;;;;;;7.70;2.00;;;;;;;30.50;32.02;101661.56;5056312;28;20028;-65
2022/08/05 10:28:16;;;;;;;4.90;1.80;;;;;;;29.15;32.46;101665.59;5056275;28;20031;-64
2022/08/05 10:30:43;;;;;;;8.88;2.00;;;;;;;27.78;36.56;101666.22;5056241;28;20039;-64
2022/08/05 10:33:08;;;;;;;4.35;1.90;;;;;;;27.54;34.51;101663.88;5055968;28;20386;-65
2022/08/05 10:35:34;;;;;;;3.33;1.80;;;;;;;27.39;35.18;101665.59;5056101;28;20029;-65
2022/08/05 10:38:01;;;;;;;6.93;2.00;;;;;;;27.39;35.00;101665.59;5055866;28;20021;-64
2022/08/05 10:40:34;;;;;;;6.68;1.90;;;;;;;27.45;37.19;101665.25;5055864;28;20033;-64
2022/08/05 10:43:36;;;;;;;7.25;2.03;;;;;;;27.64;36.82;101669.69;5052849;28;20058;-65
2022/08/05 10:46:05;;;;;;;3.65;2.00;;;;;;;27.19;36.50;101668.44;5053284;28;20029;-64
2022/08/05 10:48:35;;;;;;;8.55;2.03;;;;;;;27.11;37.03;101677.84;5055717;28;20039;-65
2022/08/05 10:51:10;;;;;;;8.20;1.92;;;;;;;26.75;36.71;101676.13;5055795;28;20046;-65
2022/08/05 10:53:56;;;;;;;4.00;1.80;;;;;;;26.96;36.04;101678.69;5055743;28;20029;-65
2022/08/05 10:56:25;;;;;;;4.30;1.90;;;;;;;27.55;35.00;101679.22;5055277;28;20484;-65
2022/08/05 10:58:53;;;;;;;7.40;1.98;;;;;;;28.74;33.17;101688.88;5055568;28;20029;-65
2022/08/05 11:01:37;;;;;;;5.80;1.83;;;;;;;29.74;31.87;101690.94;5055499;28;20025;-65
2022/08/05 11:04:20;;;;;;;3.22;1.65;;;;;;;28.90;31.14;101694.28;5053156;28;20107;-65
2022/08/05 11:06:59;;;;;;;2.13;1.65;;;;;;;30.36;29.92;101697.03;5055562;28;20529;-65
2022/08/05 11:09:26;;;;;;;3.35;1.50;;;;;;;30.54;28.62;101695.84;5051680;28;20029;-65
2022/08/05 11:11:53;;;;;;;5.90;1.80;;;;;;;29.64;30.23;101699.81;5055229;28;20541;-65
2022/08/05 11:14:31;;;;;;;5.70;1.67;;;;;;;30.33;29.87;101703.53;5055054;28;20033;-66
2022/08/05 11:17:26;;;;;;;3.85;1.85;;;;;;;30.80;29.42;101695.03;5052005;28;20384;-65
2022/08/05 11:19:53;;;;;;;5.80;1.80;;;;;;;30.45;29.56;101711.94;5054386;28;20041;-65